Terminal Aerodrome Forecast
Issued by NWS

Home | Current Version | Previous Version | Text Only | Print | Product List | Glossary On
Versions: 1 2 3 4 5 6 7 8 9 10 11 12 13 14 15 16 17 18 19 20 21 22 23 24 25 26 27 28 29 30 31 32 33 34 35 36 37 38 39 40 41 42
000
FTUS43 KBIS 200954 AAA
TAFMOT
TAF AMD
KMOT 200954Z 2010/2106 09011KT 3SM -SN SCT020 OVC040
      TEMPO 2010/2012 6SM -SN OVC025
     FM201200 12011G19KT P6SM -SHSN OVC018
     FM201600 14012KT P6SM BKN019=

USA.gov is the U.S. government's official web portal to all federal, state and local government web resources and services.